Terminal Aerodrome Forecast
Issued by NWS

Home | Current Version | Previous Version | Text Only | Print | Product List | Glossary On
Versions: 1 2 3 4 5 6 7 8 9 10 11 12 13 14 15
000
FTUS42 TJSJ 242300
TAFKPK
TAF
TKPK 242337Z 2500/2524 07014KT P6SM -RA SCT017 BKN040 BKN090
      TEMPO 2500/2504 10014G27KT 3SM SHRA BKN017
     FM250430 07012KT P6SM VCSH SCT018 BKN050
     FM251500 06016G25KT P6SM FEW020 SCT050
      AMD NOT SKED 2502/2511=

USA.gov is the U.S. government's official web portal to all federal, state and local government web resources and services.